Portada
METAR-TAF:

METAR-TAF

Aeroports :

Orleans, França

latitud: 47-59N, longitud: 001-45E, altitud: 126 m

Observació

L'informe es va fer fa 38 minuts, a les 21:30 UTC
Vent 8 kt del Oest/Nord-Oest
Temperatura 21°C
Humitat 73%
Pressió 1015 hPa
Visibilitat 10 km o més
Escasses núvols a una alçada de 3600 ft
Cel ennuvolat a una alçada de 5000 ft
Cel cobert a una alçada de 6000 ft

METAR: LFOJ 182130Z AUTO 29008KT 9999 FEW036 BKN050 OVC060 21/16 Q1015

Hora: 00:08 (22:08 UTC)

Pronòstic

L'informe es va fer fa 8 hores i 8 minuts, a les 14:00 UTC
Pronòstic vàlid del 18 a les 15 UTC al 19 a les 15 UTC
Vent 13 kt del Oest
Visibilitat 10 km o més
Núvols disperses a una alçada de 4500 ft
Probabilitat 40% :
Temporalment
l' 19 a les 03 UTC al 19 a les 07 UTC
Cel ennuvolat a una alçada de 300 ft

TAF: LFOJ 181400Z 1815/1915 26013KT 9999 SCT045 PROB40 TEMPO 1903/1907 BKN003

Observacions i pronòstics meteorològics de més de 4000 aeroports (METAR i TAF).

Les estacions disponibles són els punts grocs i vermells al mapa.

Posi el ratolí al punt desitjat per veure el nom de l'estació.

Feu clic per veure les observacions i els pronòstics meteorològics.

Per canviar el mapa: feu clic els botons verds amb una creu de color negre per apropar; al botó verd amb un guió per allunyar la imatge; o en les fletxes verdes per a mapes adjacents.


METAR-TAF: